sensor_id;sensor_type;location;lat;lon;timestamp;P1;durP1;ratioP1;P2;durP2;ratioP2
24090;SDS011;12272;52.426;17.100;2022-10-31T00:02:39;38.33;;;25.50;;
24090;SDS011;12272;52.426;17.100;2022-10-31T00:07:41;31.93;;;25.53;;
24090;SDS011;12272;52.426;17.100;2022-10-31T00:12:44;34.27;;;25.73;;
24090;SDS011;12272;52.426;17.100;2022-10-31T00:17:46;33.37;;;26.27;;
24090;SDS011;12272;52.426;17.100;2022-10-31T00:22:49;33.60;;;26.67;;
24090;SDS011;12272;52.426;17.100;2022-10-31T00:27:51;31.80;;;25.47;;
24090;SDS011;12272;52.426;17.100;2022-10-31T00:32:54;36.77;;;26.40;;
24090;SDS011;12272;52.426;17.100;2022-10-31T00:37:57;36.90;;;26.67;;
24090;SDS011;12272;52.426;17.100;2022-10-31T00:43:00;37.23;;;26.00;;
24090;SDS011;12272;52.426;17.100;2022-10-31T00:48:04;46.67;;;27.93;;
24090;SDS011;12272;52.426;17.100;2022-10-31T00:53:06;31.60;;;23.40;;
24090;SDS011;12272;52.426;17.100;2022-10-31T00:58:09;30.40;;;23.10;;
24090;SDS011;12272;52.426;17.100;2022-10-31T01:03:13;32.03;;;23.07;;
24090;SDS011;12272;52.426;17.100;2022-10-31T01:08:16;30.57;;;23.10;;
24090;SDS011;12272;52.426;17.100;2022-10-31T01:13:18;31.10;;;24.87;;
24090;SDS011;12272;52.426;17.100;2022-10-31T01:18:24;32.63;;;23.83;;
24090;SDS011;12272;52.426;17.100;2022-10-31T01:23:27;29.13;;;23.47;;
24090;SDS011;12272;52.426;17.100;2022-10-31T01:28:30;37.10;;;25.17;;
24090;SDS011;12272;52.426;17.100;2022-10-31T01:33:33;42.60;;;27.57;;
24090;SDS011;12272;52.426;17.100;2022-10-31T01:38:36;45.53;;;30.53;;
24090;SDS011;12272;52.426;17.100;2022-10-31T01:43:42;42.73;;;29.70;;
24090;SDS011;12272;52.426;17.100;2022-10-31T01:48:52;42.07;;;27.97;;
24090;SDS011;12272;52.426;17.100;2022-10-31T01:53:57;42.63;;;28.77;;
24090;SDS011;12272;52.426;17.100;2022-10-31T01:59:02;40.57;;;27.80;;
24090;SDS011;12272;52.426;17.100;2022-10-31T02:04:09;32.70;;;25.43;;
24090;SDS011;12272;52.426;17.100;2022-10-31T02:09:12;32.60;;;25.73;;
24090;SDS011;12272;52.426;17.100;2022-10-31T02:14:16;36.13;;;25.23;;
24090;SDS011;12272;52.426;17.100;2022-10-31T02:19:22;32.20;;;24.70;;
24090;SDS011;12272;52.426;17.100;2022-10-31T02:24:58;31.77;;;24.67;;
24090;SDS011;12272;52.426;17.100;2022-10-31T02:30:15;33.63;;;25.30;;
24090;SDS011;12272;52.426;17.100;2022-10-31T02:40:54;26.20;;;23.03;;
24090;SDS011;12272;52.426;17.100;2022-10-31T02:46:23;30.47;;;24.63;;
24090;SDS011;12272;52.426;17.100;2022-10-31T02:51:35;30.23;;;24.20;;
24090;SDS011;12272;52.426;17.100;2022-10-31T02:56:38;31.30;;;24.47;;
24090;SDS011;12272;52.426;17.100;2022-10-31T03:12:37;32.43;;;24.17;;
24090;SDS011;12272;52.426;17.100;2022-10-31T03:23:07;30.30;;;24.10;;
24090;SDS011;12272;52.426;17.100;2022-10-31T03:28:14;31.13;;;23.60;;
24090;SDS011;12272;52.426;17.100;2022-10-31T03:33:26;34.10;;;23.73;;
24090;SDS011;12272;52.426;17.100;2022-10-31T03:38:32;27.80;;;22.20;;
24090;SDS011;12272;52.426;17.100;2022-10-31T03:43:38;32.83;;;23.83;;
24090;SDS011;12272;52.426;17.100;2022-10-31T03:48:46;24.20;;;20.77;;
24090;SDS011;12272;52.426;17.100;2022-10-31T03:58:59;35.07;;;23.57;;
24090;SDS011;12272;52.426;17.100;2022-10-31T04:04:03;31.87;;;24.03;;
24090;SDS011;12272;52.426;17.100;2022-10-31T04:09:07;29.57;;;23.37;;
24090;SDS011;12272;52.426;17.100;2022-10-31T04:14:11;30.13;;;22.57;;
24090;SDS011;12272;52.426;17.100;2022-10-31T04:19:14;25.00;;;21.03;;
24090;SDS011;12272;52.426;17.100;2022-10-31T04:24:17;23.07;;;20.77;;
24090;SDS011;12272;52.426;17.100;2022-10-31T04:29:19;22.67;;;20.00;;
24090;SDS011;12272;52.426;17.100;2022-10-31T04:34:22;25.50;;;20.63;;
24090;SDS011;12272;52.426;17.100;2022-10-31T04:39:25;23.23;;;20.37;;
24090;SDS011;12272;52.426;17.100;2022-10-31T04:44:53;26.40;;;20.57;;
24090;SDS011;12272;52.426;17.100;2022-10-31T04:49:57;26.30;;;20.43;;
24090;SDS011;12272;52.426;17.100;2022-10-31T04:54:59;23.87;;;20.43;;
24090;SDS011;12272;52.426;17.100;2022-10-31T05:00:21;29.33;;;21.83;;
24090;SDS011;12272;52.426;17.100;2022-10-31T05:05:25;29.07;;;25.67;;
24090;SDS011;12272;52.426;17.100;2022-10-31T05:10:30;25.27;;;21.73;;
24090;SDS011;12272;52.426;17.100;2022-10-31T05:15:35;27.57;;;23.53;;
24090;SDS011;12272;52.426;17.100;2022-10-31T05:21:00;27.63;;;23.33;;
24090;SDS011;12272;52.426;17.100;2022-10-31T05:26:09;25.40;;;21.67;;
24090;SDS011;12272;52.426;17.100;2022-10-31T05:31:11;25.27;;;21.07;;
24090;SDS011;12272;52.426;17.100;2022-10-31T05:36:16;22.93;;;19.97;;
24090;SDS011;12272;52.426;17.100;2022-10-31T05:41:37;22.13;;;19.40;;
24090;SDS011;12272;52.426;17.100;2022-10-31T05:46:46;27.23;;;22.27;;
24090;SDS011;12272;52.426;17.100;2022-10-31T05:52:07;23.70;;;19.77;;
24090;SDS011;12272;52.426;17.100;2022-10-31T05:57:33;25.37;;;20.70;;
24090;SDS011;12272;52.426;17.100;2022-10-31T06:02:37;25.80;;;20.80;;
24090;SDS011;12272;52.426;17.100;2022-10-31T06:07:54;23.13;;;20.23;;
24090;SDS011;12272;52.426;17.100;2022-10-31T06:12:58;25.70;;;20.77;;
24090;SDS011;12272;52.426;17.100;2022-10-31T06:18:09;24.07;;;20.30;;
24090;SDS011;12272;52.426;17.100;2022-10-31T06:23:21;21.37;;;19.07;;
24090;SDS011;12272;52.426;17.100;2022-10-31T06:28:29;22.43;;;18.33;;
24090;SDS011;12272;52.426;17.100;2022-10-31T06:33:45;23.27;;;18.27;;
24090;SDS011;12272;52.426;17.100;2022-10-31T06:38:47;23.23;;;18.83;;
24090;SDS011;12272;52.426;17.100;2022-10-31T06:43:53;23.20;;;18.97;;
24090;SDS011;12272;52.426;17.100;2022-10-31T06:49:14;23.97;;;19.03;;
24090;SDS011;12272;52.426;17.100;2022-10-31T06:54:24;26.97;;;21.23;;
24090;SDS011;12272;52.426;17.100;2022-10-31T06:59:28;31.70;;;22.60;;
24090;SDS011;12272;52.426;17.100;2022-10-31T07:04:50;24.03;;;19.87;;
24090;SDS011;12272;52.426;17.100;2022-10-31T07:09:52;36.77;;;24.07;;
24090;SDS011;12272;52.426;17.100;2022-10-31T07:15:10;31.77;;;21.60;;
24090;SDS011;12272;52.426;17.100;2022-10-31T07:20:12;41.43;;;29.53;;
24090;SDS011;12272;52.426;17.100;2022-10-31T07:25:16;32.37;;;22.87;;
24090;SDS011;12272;52.426;17.100;2022-10-31T07:30:37;47.00;;;32.80;;
24090;SDS011;12272;52.426;17.100;2022-10-31T07:35:40;30.63;;;22.77;;
24090;SDS011;12272;52.426;17.100;2022-10-31T07:40:49;32.67;;;24.50;;
24090;SDS011;12272;52.426;17.100;2022-10-31T07:45:53;39.70;;;29.00;;
24090;SDS011;12272;52.426;17.100;2022-10-31T07:51:14;38.33;;;27.17;;
24090;SDS011;12272;52.426;17.100;2022-10-31T07:56:48;53.07;;;33.10;;
24090;SDS011;12272;52.426;17.100;2022-10-31T08:01:51;84.90;;;53.13;;
24090;SDS011;12272;52.426;17.100;2022-10-31T08:07:19;82.97;;;43.23;;
24090;SDS011;12272;52.426;17.100;2022-10-31T08:12:29;83.73;;;43.93;;
24090;SDS011;12272;52.426;17.100;2022-10-31T08:17:34;40.67;;;29.30;;
24090;SDS011;12272;52.426;17.100;2022-10-31T08:22:39;57.30;;;32.37;;
24090;SDS011;12272;52.426;17.100;2022-10-31T08:27:49;69.57;;;39.77;;
24090;SDS011;12272;52.426;17.100;2022-10-31T08:32:59;53.63;;;34.30;;
24090;SDS011;12272;52.426;17.100;2022-10-31T08:38:20;56.77;;;35.33;;
24090;SDS011;12272;52.426;17.100;2022-10-31T08:43:24;55.77;;;35.27;;
24090;SDS011;12272;52.426;17.100;2022-10-31T08:48:27;61.17;;;39.70;;
24090;SDS011;12272;52.426;17.100;2022-10-31T08:53:31;37.90;;;26.57;;
24090;SDS011;12272;52.426;17.100;2022-10-31T08:58:57;48.70;;;28.93;;
24090;SDS011;12272;52.426;17.100;2022-10-31T09:04:12;31.67;;;22.00;;
24090;SDS011;12272;52.426;17.100;2022-10-31T09:09:15;24.50;;;18.50;;
24090;SDS011;12272;52.426;17.100;2022-10-31T09:14:17;21.23;;;17.37;;
24090;SDS011;12272;52.426;17.100;2022-10-31T09:19:48;22.23;;;18.37;;
24090;SDS011;12272;52.426;17.100;2022-10-31T09:24:51;31.03;;;21.03;;
24090;SDS011;12272;52.426;17.100;2022-10-31T09:29:53;27.87;;;21.40;;
24090;SDS011;12272;52.426;17.100;2022-10-31T09:34:56;26.03;;;19.10;;
24090;SDS011;12272;52.426;17.100;2022-10-31T09:39:59;27.83;;;20.23;;
24090;SDS011;12272;52.426;17.100;2022-10-31T09:50:25;26.83;;;18.40;;
24090;SDS011;12272;52.426;17.100;2022-10-31T09:56:15;30.23;;;22.37;;
24090;SDS011;12272;52.426;17.100;2022-10-31T10:01:39;38.23;;;25.13;;
24090;SDS011;12272;52.426;17.100;2022-10-31T10:06:51;37.73;;;25.47;;
24090;SDS011;12272;52.426;17.100;2022-10-31T10:23:23;45.07;;;30.00;;
24090;SDS011;12272;52.426;17.100;2022-10-31T10:28:35;38.20;;;24.97;;
24090;SDS011;12272;52.426;17.100;2022-10-31T10:33:42;35.93;;;22.43;;
24090;SDS011;12272;52.426;17.100;2022-10-31T10:39:14;43.03;;;24.77;;
24090;SDS011;12272;52.426;17.100;2022-10-31T10:44:25;39.87;;;24.77;;
24090;SDS011;12272;52.426;17.100;2022-10-31T10:49:52;36.37;;;22.77;;
24090;SDS011;12272;52.426;17.100;2022-10-31T11:05:42;46.27;;;28.23;;
24090;SDS011;12272;52.426;17.100;2022-10-31T11:10:55;36.43;;;24.60;;
24090;SDS011;12272;52.426;17.100;2022-10-31T11:16:09;24.87;;;20.07;;
24090;SDS011;12272;52.426;17.100;2022-10-31T11:21:34;49.37;;;30.17;;
24090;SDS011;12272;52.426;17.100;2022-10-31T11:26:37;53.17;;;34.63;;
24090;SDS011;12272;52.426;17.100;2022-10-31T11:31:41;39.23;;;27.90;;
24090;SDS011;12272;52.426;17.100;2022-10-31T11:36:44;54.23;;;33.13;;
24090;SDS011;12272;52.426;17.100;2022-10-31T11:41:47;39.70;;;30.20;;
24090;SDS011;12272;52.426;17.100;2022-10-31T11:46:53;49.23;;;30.30;;
24090;SDS011;12272;52.426;17.100;2022-10-31T11:51:58;37.33;;;22.27;;
24090;SDS011;12272;52.426;17.100;2022-10-31T11:57:32;48.83;;;28.80;;
24090;SDS011;12272;52.426;17.100;2022-10-31T12:02:44;40.50;;;24.63;;
24090;SDS011;12272;52.426;17.100;2022-10-31T12:07:47;39.50;;;26.50;;
24090;SDS011;12272;52.426;17.100;2022-10-31T12:23:53;40.33;;;23.43;;
24090;SDS011;12272;52.426;17.100;2022-10-31T12:29:17;34.73;;;19.87;;
24090;SDS011;12272;52.426;17.100;2022-10-31T13:00:48;31.70;;;20.13;;
24090;SDS011;12272;52.426;17.100;2022-10-31T13:06:12;28.00;;;20.20;;
24090;SDS011;12272;52.426;17.100;2022-10-31T13:11:28;31.20;;;20.33;;
24090;SDS011;12272;52.426;17.100;2022-10-31T13:16:36;38.27;;;21.40;;
24090;SDS011;12272;52.426;17.100;2022-10-31T13:27:11;24.90;;;17.30;;
24090;SDS011;12272;52.426;17.100;2022-10-31T13:32:20;25.63;;;18.13;;
24090;SDS011;12272;52.426;17.100;2022-10-31T13:37:41;23.07;;;16.67;;
24090;SDS011;12272;52.426;17.100;2022-10-31T13:58:25;30.93;;;22.13;;
24090;SDS011;12272;52.426;17.100;2022-10-31T14:03:29;32.63;;;20.13;;
24090;SDS011;12272;52.426;17.100;2022-10-31T14:08:54;30.77;;;22.63;;
24090;SDS011;12272;52.426;17.100;2022-10-31T14:13:57;36.37;;;21.53;;
24090;SDS011;12272;52.426;17.100;2022-10-31T14:29:30;34.53;;;22.63;;
24090;SDS011;12272;52.426;17.100;2022-10-31T14:34:37;87.03;;;22.90;;
24090;SDS011;12272;52.426;17.100;2022-10-31T14:50:40;65.93;;;22.60;;
24090;SDS011;12272;52.426;17.100;2022-10-31T14:55:51;59.70;;;26.03;;
24090;SDS011;12272;52.426;17.100;2022-10-31T15:00:56;40.97;;;23.20;;
24090;SDS011;12272;52.426;17.100;2022-10-31T15:06:00;46.93;;;24.73;;
24090;SDS011;12272;52.426;17.100;2022-10-31T15:11:11;47.80;;;24.43;;
24090;SDS011;12272;52.426;17.100;2022-10-31T15:16:24;59.10;;;25.55;;
24090;SDS011;12272;52.426;17.100;2022-10-31T15:21:42;46.97;;;26.85;;
24090;SDS011;12272;52.426;17.100;2022-10-31T15:26:49;46.72;;;25.48;;
24090;SDS011;12272;52.426;17.100;2022-10-31T15:36:58;44.35;;;27.33;;
24090;SDS011;12272;52.426;17.100;2022-10-31T15:42:01;42.28;;;27.02;;
24090;SDS011;12272;52.426;17.100;2022-10-31T15:47:07;41.22;;;25.15;;
24090;SDS011;12272;52.426;17.100;2022-10-31T15:57:39;40.05;;;24.73;;
24090;SDS011;12272;52.426;17.100;2022-10-31T16:02:43;38.23;;;24.90;;
24090;SDS011;12272;52.426;17.100;2022-10-31T16:07:49;40.83;;;24.27;;
24090;SDS011;12272;52.426;17.100;2022-10-31T16:12:53;39.67;;;23.02;;
24090;SDS011;12272;52.426;17.100;2022-10-31T16:17:56;37.97;;;21.20;;
24090;SDS011;12272;52.426;17.100;2022-10-31T16:23:02;34.20;;;22.80;;
24090;SDS011;12272;52.426;17.100;2022-10-31T16:28:18;35.93;;;21.50;;
24090;SDS011;12272;52.426;17.100;2022-10-31T16:33:32;35.30;;;22.40;;
24090;SDS011;12272;52.426;17.100;2022-10-31T16:38:39;35.08;;;20.98;;
24090;SDS011;12272;52.426;17.100;2022-10-31T16:43:42;33.63;;;22.77;;
24090;SDS011;12272;52.426;17.100;2022-10-31T16:48:51;36.13;;;23.75;;
24090;SDS011;12272;52.426;17.100;2022-10-31T16:53:54;37.25;;;22.77;;
24090;SDS011;12272;52.426;17.100;2022-10-31T16:58:56;33.22;;;21.98;;
24090;SDS011;12272;52.426;17.100;2022-10-31T17:04:03;37.40;;;23.23;;
24090;SDS011;12272;52.426;17.100;2022-10-31T17:09:06;34.08;;;22.65;;
24090;SDS011;12272;52.426;17.100;2022-10-31T17:14:08;44.95;;;26.30;;
24090;SDS011;12272;52.426;17.100;2022-10-31T17:19:12;36.80;;;25.80;;
24090;SDS011;12272;52.426;17.100;2022-10-31T17:24:15;30.63;;;20.42;;
24090;SDS011;12272;52.426;17.100;2022-10-31T17:29:17;31.88;;;22.73;;
24090;SDS011;12272;52.426;17.100;2022-10-31T17:34:20;33.85;;;23.08;;
24090;SDS011;12272;52.426;17.100;2022-10-31T17:39:22;30.38;;;22.58;;
24090;SDS011;12272;52.426;17.100;2022-10-31T17:44:25;33.58;;;23.48;;
24090;SDS011;12272;52.426;17.100;2022-10-31T17:49:27;32.53;;;22.27;;
24090;SDS011;12272;52.426;17.100;2022-10-31T17:54:30;42.53;;;26.70;;
24090;SDS011;12272;52.426;17.100;2022-10-31T17:59:32;31.50;;;22.20;;
24090;SDS011;12272;52.426;17.100;2022-10-31T18:04:35;29.30;;;21.83;;
24090;SDS011;12272;52.426;17.100;2022-10-31T18:09:38;29.13;;;22.23;;
24090;SDS011;12272;52.426;17.100;2022-10-31T18:14:40;28.57;;;20.50;;
24090;SDS011;12272;52.426;17.100;2022-10-31T18:19:49;38.97;;;29.03;;
24090;SDS011;12272;52.426;17.100;2022-10-31T18:24:51;26.50;;;19.17;;
24090;SDS011;12272;52.426;17.100;2022-10-31T18:29:56;36.77;;;24.87;;
24090;SDS011;12272;52.426;17.100;2022-10-31T18:34:58;21.00;;;17.02;;
24090;SDS011;12272;52.426;17.100;2022-10-31T18:40:01;23.75;;;18.60;;
24090;SDS011;12272;52.426;17.100;2022-10-31T18:45:04;20.67;;;17.20;;
24090;SDS011;12272;52.426;17.100;2022-10-31T18:50:27;28.48;;;17.83;;
24090;SDS011;12272;52.426;17.100;2022-10-31T18:55:29;24.27;;;17.53;;
24090;SDS011;12272;52.426;17.100;2022-10-31T19:00:32;24.97;;;18.27;;
24090;SDS011;12272;52.426;17.100;2022-10-31T19:05:34;21.73;;;19.38;;
24090;SDS011;12272;52.426;17.100;2022-10-31T19:10:38;19.10;;;16.80;;
24090;SDS011;12272;52.426;17.100;2022-10-31T19:15:40;19.33;;;16.88;;
24090;SDS011;12272;52.426;17.100;2022-10-31T19:20:43;20.73;;;17.73;;
24090;SDS011;12272;52.426;17.100;2022-10-31T19:25:45;22.17;;;17.77;;
24090;SDS011;12272;52.426;17.100;2022-10-31T19:30:52;21.58;;;16.95;;
24090;SDS011;12272;52.426;17.100;2022-10-31T19:35:58;24.77;;;19.38;;
24090;SDS011;12272;52.426;17.100;2022-10-31T19:41:06;22.37;;;18.17;;
24090;SDS011;12272;52.426;17.100;2022-10-31T19:46:11;22.98;;;17.70;;
24090;SDS011;12272;52.426;17.100;2022-10-31T19:51:28;25.50;;;18.00;;
24090;SDS011;12272;52.426;17.100;2022-10-31T19:56:31;23.48;;;19.63;;
24090;SDS011;12272;52.426;17.100;2022-10-31T20:01:33;27.30;;;17.63;;
24090;SDS011;12272;52.426;17.100;2022-10-31T20:06:37;24.45;;;18.13;;
24090;SDS011;12272;52.426;17.100;2022-10-31T20:11:42;29.05;;;19.77;;
24090;SDS011;12272;52.426;17.100;2022-10-31T20:16:46;20.98;;;16.85;;
24090;SDS011;12272;52.426;17.100;2022-10-31T20:21:49;22.48;;;18.63;;
24090;SDS011;12272;52.426;17.100;2022-10-31T20:26:51;23.88;;;18.40;;
24090;SDS011;12272;52.426;17.100;2022-10-31T20:31:53;23.73;;;19.58;;
24090;SDS011;12272;52.426;17.100;2022-10-31T20:36:57;21.77;;;17.90;;
24090;SDS011;12272;52.426;17.100;2022-10-31T20:42:00;48.57;;;24.33;;
24090;SDS011;12272;52.426;17.100;2022-10-31T20:47:03;50.90;;;28.30;;
24090;SDS011;12272;52.426;17.100;2022-10-31T20:52:07;50.60;;;28.27;;
24090;SDS011;12272;52.426;17.100;2022-10-31T20:57:09;63.87;;;31.83;;
24090;SDS011;12272;52.426;17.100;2022-10-31T21:02:12;57.27;;;32.27;;
24090;SDS011;12272;52.426;17.100;2022-10-31T21:07:15;58.37;;;30.93;;
24090;SDS011;12272;52.426;17.100;2022-10-31T21:12:17;56.50;;;30.53;;
24090;SDS011;12272;52.426;17.100;2022-10-31T21:17:20;78.70;;;33.20;;
24090;SDS011;12272;52.426;17.100;2022-10-31T21:22:22;22.33;;;17.47;;
24090;SDS011;12272;52.426;17.100;2022-10-31T21:27:25;23.63;;;17.90;;
24090;SDS011;12272;52.426;17.100;2022-10-31T21:32:27;48.03;;;22.33;;
24090;SDS011;12272;52.426;17.100;2022-10-31T21:37:30;28.67;;;19.10;;
24090;SDS011;12272;52.426;17.100;2022-10-31T21:42:32;23.63;;;16.60;;
24090;SDS011;12272;52.426;17.100;2022-10-31T21:47:35;23.53;;;17.87;;
24090;SDS011;12272;52.426;17.100;2022-10-31T21:52:37;22.97;;;17.83;;
24090;SDS011;12272;52.426;17.100;2022-10-31T21:57:40;17.23;;;13.87;;
24090;SDS011;12272;52.426;17.100;2022-10-31T22:02:42;22.07;;;16.20;;
24090;SDS011;12272;52.426;17.100;2022-10-31T22:07:45;19.63;;;16.03;;
24090;SDS011;12272;52.426;17.100;2022-10-31T22:12:47;17.37;;;14.37;;
24090;SDS011;12272;52.426;17.100;2022-10-31T22:17:50;22.37;;;17.43;;
24090;SDS011;12272;52.426;17.100;2022-10-31T22:22:52;28.33;;;19.63;;
24090;SDS011;12272;52.426;17.100;2022-10-31T22:27:55;26.63;;;19.03;;
24090;SDS011;12272;52.426;17.100;2022-10-31T22:32:57;21.13;;;17.00;;
24090;SDS011;12272;52.426;17.100;2022-10-31T22:38:00;30.33;;;19.73;;
24090;SDS011;12272;52.426;17.100;2022-10-31T22:43:03;23.37;;;16.17;;
24090;SDS011;12272;52.426;17.100;2022-10-31T22:48:05;31.73;;;20.87;;
24090;SDS011;12272;52.426;17.100;2022-10-31T22:53:08;23.83;;;18.17;;
24090;SDS011;12272;52.426;17.100;2022-10-31T22:58:12;20.00;;;14.20;;
24090;SDS011;12272;52.426;17.100;2022-10-31T23:03:14;26.45;;;19.48;;
24090;SDS011;12272;52.426;17.100;2022-10-31T23:08:19;26.10;;;18.30;;
24090;SDS011;12272;52.426;17.100;2022-10-31T23:13:22;28.63;;;16.97;;
24090;SDS011;12272;52.426;17.100;2022-10-31T23:18:43;22.00;;;17.10;;
24090;SDS011;12272;52.426;17.100;2022-10-31T23:23:51;15.77;;;13.23;;
24090;SDS011;12272;52.426;17.100;2022-10-31T23:28:53;16.70;;;13.93;;
24090;SDS011;12272;52.426;17.100;2022-10-31T23:33:56;17.97;;;14.07;;
24090;SDS011;12272;52.426;17.100;2022-10-31T23:38:58;16.97;;;15.13;;
24090;SDS011;12272;52.426;17.100;2022-10-31T23:44:01;43.83;;;23.87;;
24090;SDS011;12272;52.426;17.100;2022-10-31T23:49:03;22.17;;;15.83;;
24090;SDS011;12272;52.426;17.100;2022-10-31T23:54:06;28.27;;;17.57;;
24090;SDS011;12272;52.426;17.100;2022-10-31T23:59:09;23.03;;;15.37;;
